CheckWX is a tool to help pilots better visualize weather data.  It is not intended as a substitute for an official pre-flight weather briefing.

11:55:45 UTC

SKBO TAF
El Dorado International Airport
Bogota, Colombia
TAF SKBO 211030Z 2112/2212 VRB03KT 9999 FEW020 SCT090 BECMG 2115/2117 25010KT SCT020 BKN090 PROB40 2119/2122 7000 RADZ SCT017TCU BECMG 2201/2203 04005KT TX20/2118Z TN08/2211Z

Feb-21@
12:00 UTC

Feb-21 @ 12:00 UTC

Feb-21@
15:00 UTC

Feb-21 @ 15:00 UTC

TAF SKBO 211030Z 2112/2212 VRB03KT 9999 FEW020 SCT090
Wind
  • Variable at 3 KTS
Cloud Levels
  • Few at 2,000' AGL
  • Scattered at 9,000' AGL

Feb-21@
15:00 UTC

Feb-21 @ 15:00 UTC

Feb-22@
01:00 UTC

Feb-22 @ 01:00 UTC

BECMG 2115/2117 25010KT SCT020 BKN090

Becoming

Becoming Conditions expected by Fri, Feb 21, 2020 @ 17:00 UTC

Wind
  • 250° at 10 KTS
Cloud Levels
  • Scattered at 2,000' AGL
  • Broken at 9,000' AGL

Feb-21@
19:00 UTC

Feb-21 @ 19:00 UTC

Feb-21@
22:00 UTC

Feb-21 @ 22:00 UTC

PROB40 2119/2122 7000 RADZ SCT017TCU

Probable - 40% Likelihood

Probable - 40% Likelihood during this time.

Conditions
Rain, Drizzle
Cloud Levels
  • Scattered at 1,700' AGL

Feb-22@
01:00 UTC

Feb-22 @ 01:00 UTC

Feb-22@
12:00 UTC

Feb-22 @ 12:00 UTC

BECMG 2201/2203 04005KT TX20/2118Z TN08/2211Z

Becoming

Becoming Conditions expected by Sat, Feb 22, 2020 @ 03:00 UTC

Wind
  • 040° at 5 KTS
Cloud Levels
  • Scattered at 2,000' AGL
  • Broken at 9,000' AGL